createdAt,value
2023-04-05T00:02:19.302Z,90.57
2023-04-05T00:04:53.279Z,90.71
2023-04-05T00:07:23.101Z,90.79
2023-04-05T00:09:52.526Z,90.53
2023-04-05T00:12:21.934Z,90.52
2023-04-05T00:14:53.067Z,90.38
2023-04-05T00:17:24.016Z,90.05
2023-04-05T00:19:57.631Z,89.82
2023-04-05T00:22:32.677Z,89.59
2023-04-05T00:25:05.260Z,89.77
2023-04-05T00:27:35.903Z,89.88
2023-04-05T00:30:07.207Z,89.55
2023-04-05T00:32:37.430Z,89.29
2023-04-05T00:35:07.617Z,89.27
2023-04-05T00:37:36.834Z,89.17
2023-04-05T00:40:08.095Z,89.05
2023-04-05T00:42:38.162Z,88.88
2023-04-05T00:45:09.435Z,88.59
2023-04-05T00:47:41.603Z,88.35
2023-04-05T00:50:13.096Z,87.99
2023-04-05T00:52:44.453Z,88.54
2023-04-05T00:55:14.813Z,88.44
2023-04-05T00:57:45.685Z,88.29
2023-04-05T01:00:16.437Z,88.13
2023-04-05T01:02:52.878Z,88.07
2023-04-05T01:05:36.824Z,88.26
2023-04-05T01:08:15.429Z,88.40
2023-04-05T01:11:00.955Z,88.57
2023-04-05T01:13:31.225Z,88.16
2023-04-05T01:16:01.578Z,88.14
2023-04-05T01:18:31.490Z,87.99
2023-04-05T01:21:42.111Z,88.23
2023-04-05T01:25:03.785Z,88.20
2023-04-05T01:28:15.093Z,88.42
2023-04-05T01:31:17.892Z,88.61
2023-04-05T01:34:00.145Z,88.87
2023-04-05T01:36:41.269Z,88.93
2023-04-05T01:39:15.163Z,88.63
2023-04-05T01:41:44.529Z,88.46
2023-04-05T01:44:14.323Z,88.11
2023-04-05T01:46:44.163Z,88.01
2023-04-05T01:49:15.601Z,87.98
2023-04-05T01:51:45.740Z,86.92
2023-04-05T01:54:16.261Z,87.12
2023-04-05T01:56:47.094Z,87.67
2023-04-05T01:59:16.880Z,87.55
2023-04-05T02:01:51.652Z,87.44
2023-04-05T02:04:21.303Z,87.47
2023-04-05T02:06:51.304Z,87.05
2023-04-05T02:09:21.180Z,87.03
2023-04-05T02:11:51.038Z,87.05
2023-04-05T02:14:21.686Z,87.50
2023-04-05T02:16:52.443Z,86.93
2023-04-05T02:19:23.358Z,86.24
2023-04-05T02:21:56.743Z,86.22
2023-04-05T02:24:26.894Z,86.61
2023-04-05T02:26:56.845Z,86.79
2023-04-05T02:29:28.014Z,86.94
2023-04-05T02:32:00.757Z,86.66
2023-04-05T02:34:31.193Z,86.95
2023-04-05T02:37:04.498Z,87.22
2023-04-05T02:39:36.516Z,86.98
2023-04-05T02:42:06.696Z,87.13
2023-04-05T02:44:37.596Z,86.93
2023-04-05T02:47:10.473Z,86.36
2023-04-05T02:49:39.681Z,86.54
2023-04-05T02:52:11.202Z,86.43
2023-04-05T02:54:41.022Z,86.77
2023-04-05T02:57:12.025Z,86.53
2023-04-05T02:59:47.441Z,87.20
2023-04-05T03:02:17.479Z,87.11
2023-04-05T03:04:47.382Z,87.18
2023-04-05T03:07:19.242Z,86.58
2023-04-05T03:09:51.921Z,87.02
2023-04-05T03:12:22.112Z,86.96
2023-04-05T03:14:54.974Z,86.30
2023-04-05T03:17:26.485Z,86.66
2023-04-05T03:20:09.822Z,87.20
2023-04-05T03:22:41.474Z,85.93
2023-04-05T03:25:16.558Z,85.40
2023-04-05T03:27:49.335Z,85.85
2023-04-05T03:30:25.433Z,86.09
2023-04-05T03:33:02.394Z,86.07
2023-04-05T03:35:40.133Z,86.37
2023-04-05T03:38:12.329Z,86.22
2023-04-05T03:40:49.653Z,85.10
2023-04-05T03:43:20.027Z,84.79
2023-04-05T03:45:50.047Z,84.37
2023-04-05T03:48:20.959Z,84.41
2023-04-05T03:50:52.077Z,84.17
2023-04-05T03:53:23.880Z,83.89
2023-04-05T03:55:58.022Z,84.27
2023-04-05T03:58:44.416Z,84.62
2023-04-05T04:01:15.982Z,84.99
2023-04-05T04:03:45.965Z,84.73
2023-04-05T04:06:19.209Z,84.72
2023-04-05T04:08:49.098Z,84.61
2023-04-05T04:11:20.325Z,85.23
2023-04-05T04:13:52.177Z,85.05
2023-04-05T04:16:48.209Z,85.38
2023-04-05T04:19:36.301Z,85.92
2023-04-05T04:22:39.214Z,86.06
2023-04-05T04:25:22.999Z,85.89
2023-04-05T04:28:08.549Z,86.37
2023-04-05T04:30:49.211Z,85.69
2023-04-05T04:33:45.482Z,85.29
2023-04-05T04:36:39.849Z,85.78
2023-04-05T04:39:50.921Z,85.54
2023-04-05T04:42:39.479Z,84.37
2023-04-05T04:45:12.999Z,84.26
2023-04-05T04:47:50.435Z,84.67
2023-04-05T04:50:28.982Z,84.42
2023-04-05T04:53:02.707Z,84.94
2023-04-05T04:55:34.646Z,83.71
2023-04-05T04:58:11.466Z,84.17
2023-04-05T05:00:45.097Z,84.13
2023-04-05T05:03:17.114Z,82.42
2023-04-05T05:05:49.470Z,82.49
2023-04-05T05:08:28.629Z,83.49
2023-04-05T05:10:58.525Z,83.28
2023-04-05T05:13:28.345Z,83.43
2023-04-05T05:16:01.130Z,83.11
2023-04-05T05:18:30.692Z,81.44
2023-04-05T05:21:00.780Z,81.31
2023-04-05T05:23:32.719Z,81.45
2023-04-05T05:26:06.894Z,82.78
2023-04-05T05:28:41.055Z,82.43
2023-04-05T05:31:12.844Z,82.62
2023-04-05T05:33:46.422Z,82.87
2023-04-05T05:36:20.423Z,83.09
2023-04-05T05:38:53.047Z,83.16
2023-04-05T05:41:22.996Z,82.87
2023-04-05T05:43:52.932Z,82.51
2023-04-05T05:46:23.693Z,82.26
2023-04-05T05:48:53.712Z,82.61
2023-04-05T05:51:22.925Z,82.43
2023-04-05T05:53:53.511Z,82.32
2023-04-05T05:56:23.485Z,82.63
2023-04-05T05:59:00.904Z,81.97
2023-04-05T06:01:30.144Z,81.40
2023-04-05T06:03:59.634Z,81.70
2023-04-05T06:06:36.080Z,80.68
2023-04-05T06:09:07.553Z,80.59
2023-04-05T06:11:46.246Z,81.84
2023-04-05T06:14:23.199Z,79.36
2023-04-05T06:16:56.254Z,79.66
2023-04-05T06:19:26.011Z,79.79
2023-04-05T06:22:02.693Z,80.06
2023-04-05T06:24:32.657Z,79.85
2023-04-05T06:27:03.570Z,80.38
2023-04-05T06:29:33.094Z,80.23
2023-04-05T06:32:05.955Z,79.76
2023-04-05T06:34:35.299Z,80.10
2023-04-05T06:37:05.222Z,79.80
2023-04-05T06:39:37.488Z,80.44
2023-04-05T06:42:06.947Z,79.65
2023-04-05T06:44:42.413Z,78.05
2023-04-05T06:47:17.195Z,78.73
2023-04-05T06:49:47.095Z,78.27
2023-04-05T06:52:17.114Z,77.19
2023-04-05T06:54:47.235Z,77.51
2023-04-05T06:57:19.854Z,77.06
2023-04-05T06:59:55.669Z,76.67
2023-04-05T07:02:28.815Z,76.54
2023-04-05T07:05:06.268Z,75.75
2023-04-05T07:07:42.866Z,76.46
2023-04-05T07:10:12.579Z,77.75
2023-04-05T07:12:43.093Z,77.76
2023-04-05T07:15:13.856Z,77.84
2023-04-05T07:17:44.120Z,74.65
2023-04-05T07:20:16.874Z,73.50
2023-04-05T07:22:49.357Z,74.29
2023-04-05T07:25:20.524Z,74.56
2023-04-05T07:27:50.217Z,74.27
2023-04-05T07:30:19.821Z,74.20
2023-04-05T07:32:49.611Z,74.56
2023-04-05T07:35:25.727Z,72.00
2023-04-05T07:37:56.886Z,72.16
2023-04-05T07:40:26.681Z,72.67
2023-04-05T07:42:57.403Z,71.42
2023-04-05T07:45:28.006Z,72.82
2023-04-05T07:47:59.642Z,73.49
2023-04-05T07:50:32.916Z,71.11
2023-04-05T07:53:02.090Z,71.19
2023-04-05T07:55:32.562Z,70.86
2023-04-05T07:58:02.212Z,71.44
2023-04-05T08:00:32.156Z,71.42
2023-04-05T08:03:02.684Z,71.16
2023-04-05T08:05:33.984Z,72.41
2023-04-05T08:08:04.972Z,72.95
2023-04-05T08:10:44.526Z,74.16
2023-04-05T08:13:14.678Z,73.66
2023-04-05T08:15:44.136Z,73.33
2023-04-05T08:18:15.385Z,73.56
2023-04-05T08:20:45.928Z,73.79
2023-04-05T08:23:16.916Z,74.60
2023-04-05T08:25:46.691Z,74.42
2023-04-05T08:28:17.825Z,75.03
2023-04-05T08:30:48.908Z,74.91
2023-04-05T08:33:21.706Z,74.48
2023-04-05T08:35:51.585Z,74.03
2023-04-05T08:38:27.242Z,74.04
2023-04-05T08:41:08.220Z,74.15
2023-04-05T08:43:50.155Z,74.21
2023-04-05T08:46:23.088Z,74.84
2023-04-05T08:48:53.818Z,74.75
2023-04-05T08:51:27.183Z,72.40
2023-04-05T08:54:05.505Z,72.55
2023-04-05T08:56:38.334Z,73.50
2023-04-05T08:59:13.572Z,73.01
2023-04-05T09:01:45.792Z,72.51
2023-04-05T09:04:23.949Z,71.15
2023-04-05T09:06:58.529Z,70.80
2023-04-05T09:09:36.588Z,69.09
2023-04-05T09:12:21.251Z,68.75
2023-04-05T09:14:53.554Z,68.64
2023-04-05T09:17:23.688Z,71.69
2023-04-05T09:19:53.426Z,71.29
2023-04-05T09:22:24.944Z,68.91
2023-04-05T09:24:54.852Z,71.06
2023-04-05T09:27:28.879Z,70.15
2023-04-05T09:30:01.763Z,70.51
2023-04-05T09:32:32.243Z,71.27
2023-04-05T09:35:04.971Z,70.62
2023-04-05T09:37:37.703Z,70.27
2023-04-05T09:40:10.940Z,69.24
2023-04-05T09:42:48.866Z,68.28
2023-04-05T09:45:19.941Z,69.49
2023-04-05T09:47:59.804Z,68.77
2023-04-05T09:50:30.067Z,67.70
2023-04-05T09:53:19.439Z,68.62
2023-04-05T09:56:09.268Z,67.62
2023-04-05T09:58:40.915Z,68.21
2023-04-05T10:01:16.911Z,68.03
2023-04-05T10:03:50.986Z,68.49
2023-04-05T10:06:22.561Z,68.98
2023-04-05T10:08:54.201Z,69.80
2023-04-05T10:11:24.179Z,69.03
2023-04-05T10:13:54.631Z,69.07
2023-04-05T10:16:30.316Z,68.60
2023-04-05T10:19:01.483Z,68.43
2023-04-05T10:21:36.547Z,68.29
2023-04-05T10:24:50.776Z,68.93
2023-04-05T10:27:31.232Z,67.25
2023-04-05T10:30:09.435Z,68.01
2023-04-05T10:32:57.842Z,68.59
2023-04-05T10:36:02.142Z,68.61
2023-04-05T10:39:05.736Z,66.50
2023-04-05T10:42:01.370Z,65.71
2023-04-05T10:44:33.616Z,66.86
2023-04-05T10:47:07.785Z,66.60
2023-04-05T10:49:44.923Z,65.33
2023-04-05T10:52:30.418Z,66.32
2023-04-05T10:55:04.747Z,65.94
2023-04-05T10:57:40.149Z,64.09
2023-04-05T11:00:19.636Z,64.33
2023-04-05T11:03:09.853Z,61.92
2023-04-05T11:05:40.350Z,63.34
2023-04-05T11:08:13.576Z,63.39
2023-04-05T11:10:56.209Z,61.88
2023-04-05T11:13:50.715Z,61.67
2023-04-05T11:16:24.000Z,62.36
2023-04-05T11:18:53.952Z,62.26
2023-04-05T11:21:26.135Z,62.98
2023-04-05T11:24:12.334Z,65.05
2023-04-05T11:26:49.387Z,65.39
2023-04-05T11:29:41.137Z,64.32
2023-04-05T11:32:14.603Z,62.45
2023-04-05T11:34:44.661Z,59.54
2023-04-05T11:37:16.590Z,58.84
2023-04-05T11:39:46.341Z,59.99
2023-04-05T11:42:18.730Z,59.48
2023-04-05T11:44:49.830Z,59.49
2023-04-05T11:47:23.846Z,58.77
2023-04-05T11:49:53.407Z,59.49
2023-04-05T11:52:23.273Z,60.70
2023-04-05T11:54:53.774Z,60.58
2023-04-05T11:57:25.477Z,61.45
2023-04-05T11:59:57.314Z,61.52
2023-04-05T12:02:27.304Z,60.90
2023-04-05T12:04:58.665Z,61.69
2023-04-05T12:07:33.076Z,62.93
2023-04-05T12:10:16.451Z,63.74
2023-04-05T12:12:48.388Z,65.78
2023-04-05T12:15:19.483Z,64.72
2023-04-05T12:17:51.779Z,65.21
2023-04-05T12:20:26.538Z,65.00
2023-04-05T12:22:57.854Z,64.62
2023-04-05T12:25:27.640Z,61.55
2023-04-05T12:27:59.417Z,61.76
2023-04-05T12:30:37.681Z,61.10
2023-04-05T12:33:12.446Z,63.01
2023-04-05T12:35:42.221Z,61.94
2023-04-05T12:38:18.101Z,63.16
2023-04-05T12:40:56.003Z,63.66
2023-04-05T12:43:27.318Z,63.87
2023-04-05T12:45:58.278Z,62.52
2023-04-05T12:48:29.740Z,61.74
2023-04-05T12:51:16.906Z,61.32
2023-04-05T12:53:48.746Z,63.01
2023-04-05T12:56:18.223Z,62.56
2023-04-05T12:58:52.876Z,61.69
2023-04-05T13:01:22.375Z,61.11
2023-04-05T13:03:58.910Z,60.02
2023-04-05T13:06:35.813Z,60.39
2023-04-05T13:09:05.317Z,61.33
2023-04-05T13:11:35.225Z,62.21
2023-04-05T13:14:04.645Z,62.87
2023-04-05T13:16:36.976Z,61.03
2023-04-05T13:19:06.910Z,61.05
2023-04-05T13:21:37.568Z,62.11
2023-04-05T13:24:07.551Z,61.56
2023-04-05T13:26:37.949Z,62.39
2023-04-05T13:29:08.798Z,62.93
2023-04-05T13:31:41.457Z,62.76
2023-04-05T13:34:11.784Z,62.16
2023-04-05T13:36:41.430Z,62.56
2023-04-05T13:39:11.919Z,61.02
2023-04-05T13:41:42.773Z,61.57
2023-04-05T13:44:12.163Z,61.41
2023-04-05T13:46:41.728Z,61.81
2023-04-05T13:49:11.655Z,61.62
2023-04-05T13:51:42.247Z,61.26
2023-04-05T13:54:12.184Z,61.08
2023-04-05T13:56:42.855Z,61.39
2023-04-05T13:59:17.669Z,60.93
2023-04-05T14:01:49.464Z,61.27
2023-04-05T14:04:19.874Z,60.87
2023-04-05T14:06:49.485Z,60.78
2023-04-05T14:09:19.018Z,61.00
2023-04-05T14:11:49.634Z,60.24
2023-04-05T14:14:19.532Z,60.00
2023-04-05T14:16:49.977Z,60.85
2023-04-05T14:19:21.033Z,60.37
2023-04-05T14:21:52.049Z,60.75
2023-04-05T14:24:21.974Z,61.20
2023-04-05T14:26:51.608Z,62.12
2023-04-05T14:29:21.154Z,62.02
2023-04-05T14:31:50.997Z,61.83
2023-04-05T14:34:20.746Z,62.17
2023-04-05T14:36:50.264Z,62.95
2023-04-05T14:39:22.034Z,62.60
2023-04-05T14:41:53.358Z,62.42
2023-04-05T14:44:25.050Z,62.39
2023-04-05T14:46:54.479Z,63.53
2023-04-05T14:49:24.266Z,63.34
2023-04-05T14:51:54.485Z,63.10
2023-04-05T14:54:24.110Z,63.27
2023-04-05T14:56:53.864Z,63.83
2023-04-05T14:59:23.267Z,63.39
2023-04-05T15:01:52.814Z,63.21
2023-04-05T15:04:24.384Z,63.52
2023-04-05T15:06:53.751Z,63.55
2023-04-05T15:09:23.039Z,63.76
2023-04-05T15:11:54.417Z,64.11
2023-04-05T15:14:31.827Z,64.36
2023-04-05T15:17:02.397Z,64.06
2023-04-05T15:19:32.113Z,64.50
2023-04-05T15:22:01.918Z,64.49
2023-04-05T15:24:31.451Z,64.45
2023-04-05T15:27:04.118Z,64.65
2023-04-05T15:29:34.750Z,65.07
2023-04-05T15:32:05.977Z,64.99
2023-04-05T15:34:35.828Z,64.92
2023-04-05T15:37:05.449Z,64.95
2023-04-05T15:39:35.565Z,64.96
2023-04-05T15:42:08.681Z,64.91
2023-04-05T15:44:38.457Z,64.87
2023-04-05T15:47:07.760Z,64.84
2023-04-05T15:49:37.399Z,65.12
2023-04-05T15:52:08.487Z,65.32
2023-04-05T15:54:38.178Z,65.45
2023-04-05T15:57:08.474Z,65.51
2023-04-05T15:59:38.078Z,65.54
2023-04-05T16:02:08.088Z,65.63
2023-04-05T16:04:39.837Z,65.84
2023-04-05T16:07:10.434Z,66.24
2023-04-05T16:09:40.006Z,65.90
2023-04-05T16:12:11.496Z,66.03
2023-04-05T16:14:41.557Z,65.81
2023-04-05T16:17:11.305Z,65.60
2023-04-05T16:19:40.471Z,65.86
2023-04-05T16:22:10.210Z,66.05
2023-04-05T16:24:40.733Z,66.10
2023-04-05T16:27:10.341Z,66.23
2023-04-05T16:29:40.211Z,66.02
2023-04-05T16:32:11.002Z,66.36
2023-04-05T16:34:40.738Z,66.31
2023-04-05T16:37:10.065Z,66.77
2023-04-05T16:39:40.626Z,66.90
2023-04-05T16:42:13.165Z,66.65
2023-04-05T16:44:42.678Z,66.83
2023-04-05T16:47:13.060Z,66.73
2023-04-05T16:49:42.196Z,66.93
2023-04-05T16:52:12.519Z,66.82
2023-04-05T16:54:41.797Z,66.79
2023-04-05T16:57:11.814Z,66.75
2023-04-05T16:59:41.893Z,66.84
2023-04-05T17:02:11.341Z,66.93
2023-04-05T17:04:40.959Z,67.08
2023-04-05T17:07:10.330Z,67.13
2023-04-05T17:09:40.326Z,67.23
2023-04-05T17:12:12.242Z,67.38
2023-04-05T17:14:41.883Z,67.35
2023-04-05T17:17:12.503Z,67.34
2023-04-05T17:19:42.724Z,67.40
2023-04-05T17:22:14.296Z,67.22
2023-04-05T17:24:46.998Z,66.89
2023-04-05T17:27:16.508Z,67.03
2023-04-05T17:29:47.185Z,67.12
2023-04-05T17:32:17.658Z,67.25
2023-04-05T17:34:47.158Z,67.25
2023-04-05T17:37:17.181Z,67.31
2023-04-05T17:39:47.211Z,67.53
2023-04-05T17:42:19.048Z,67.75
2023-04-05T17:44:48.748Z,67.88
2023-04-05T17:47:18.943Z,68.07
2023-04-05T17:49:49.727Z,68.14
2023-04-05T17:52:22.932Z,68.39
2023-04-05T17:54:52.705Z,68.16
2023-04-05T17:57:24.990Z,68.38
2023-04-05T17:59:55.207Z,68.62
2023-04-05T18:02:25.410Z,68.58
2023-04-05T18:04:56.078Z,68.36
2023-04-05T18:07:27.620Z,68.50
2023-04-05T18:09:56.826Z,68.31
2023-04-05T18:12:29.214Z,68.43
2023-04-05T18:14:58.788Z,68.29
2023-04-05T18:17:28.549Z,68.46
2023-04-05T18:19:58.810Z,68.37
2023-04-05T18:22:33.288Z,68.26
2023-04-05T18:25:04.509Z,68.37
2023-04-05T18:27:34.033Z,68.56
2023-04-05T18:30:03.933Z,68.68
2023-04-05T18:32:33.000Z,68.56
2023-04-05T18:35:02.527Z,68.66
2023-04-05T18:37:32.499Z,69.04
2023-04-05T18:40:04.193Z,69.14
2023-04-05T18:42:34.315Z,69.58
2023-04-05T18:45:04.807Z,69.78
2023-04-05T18:47:36.322Z,69.84
2023-04-05T18:50:10.347Z,69.92
2023-04-05T18:52:40.654Z,70.27
2023-04-05T18:55:10.821Z,70.05
2023-04-05T18:57:40.805Z,70.33
2023-04-05T19:00:11.437Z,70.39
2023-04-05T19:02:41.862Z,70.58
2023-04-05T19:05:12.518Z,70.55
2023-04-05T19:07:42.385Z,70.24
2023-04-05T19:10:12.782Z,70.44
2023-04-05T19:12:43.665Z,70.46
2023-04-05T19:15:13.638Z,70.43
2023-04-05T19:17:43.641Z,70.31
2023-04-05T19:20:15.278Z,70.26
2023-04-05T19:22:45.252Z,70.09
2023-04-05T19:25:15.825Z,70.07
2023-04-05T19:27:45.838Z,70.18
2023-04-05T19:30:15.812Z,70.02
2023-04-05T19:32:45.543Z,69.97
2023-04-05T19:35:15.376Z,69.57
2023-04-05T19:37:46.503Z,69.64
2023-04-05T19:40:16.451Z,69.50
2023-04-05T19:42:48.024Z,69.25
2023-04-05T19:45:27.060Z,69.25
2023-04-05T19:47:58.476Z,69.31
2023-04-05T19:50:44.303Z,69.29
2023-04-05T19:53:33.002Z,69.21
2023-04-05T19:56:03.550Z,68.90
2023-04-05T19:58:33.195Z,68.85
2023-04-05T20:01:03.341Z,68.81
2023-04-05T20:03:41.799Z,68.96
2023-04-05T20:06:13.232Z,68.93
2023-04-05T20:08:48.551Z,69.09
2023-04-05T20:11:21.737Z,69.15
2023-04-05T20:13:57.537Z,69.08
2023-04-05T20:16:29.567Z,69.14
2023-04-05T20:19:03.321Z,69.23
2023-04-05T20:21:33.355Z,69.14
2023-04-05T20:24:03.770Z,69.21
2023-04-05T20:26:34.370Z,69.24
2023-04-05T20:29:10.020Z,69.12
2023-04-05T20:31:40.358Z,69.17
2023-04-05T20:34:16.008Z,69.28
2023-04-05T20:36:52.831Z,69.35
2023-04-05T20:39:24.352Z,69.14
2023-04-05T20:41:54.002Z,69.05
2023-04-05T20:44:25.598Z,68.89
2023-04-05T20:46:58.532Z,69.05
2023-04-05T20:49:28.531Z,69.19
2023-04-05T20:51:58.272Z,68.93
2023-04-05T20:54:27.749Z,67.89
2023-04-05T20:56:58.889Z,67.71
2023-04-05T20:59:28.823Z,66.60
2023-04-05T21:01:58.410Z,65.77
2023-04-05T21:04:29.989Z,66.08
2023-04-05T21:06:59.877Z,65.61
2023-04-05T21:09:30.610Z,65.86
2023-04-05T21:12:00.235Z,64.46
2023-04-05T21:14:30.044Z,65.05
2023-04-05T21:17:00.946Z,64.81
2023-04-05T21:19:30.026Z,64.54
2023-04-05T21:21:59.747Z,64.27
2023-04-05T21:24:29.166Z,63.91
2023-04-05T21:26:58.976Z,63.18
2023-04-05T21:29:28.716Z,63.48
2023-04-05T21:31:57.992Z,63.78
2023-04-05T21:34:31.218Z,63.83
2023-04-05T21:37:01.109Z,63.65
2023-04-05T21:39:31.113Z,63.92
2023-04-05T21:42:01.154Z,63.77
2023-04-05T21:44:30.737Z,63.89
2023-04-05T21:47:02.835Z,63.94
2023-04-05T21:49:32.545Z,64.01
2023-04-05T21:52:01.747Z,63.73
2023-04-05T21:54:31.486Z,63.64
2023-04-05T21:57:01.370Z,64.13
2023-04-05T21:59:31.062Z,64.03
2023-04-05T22:02:01.799Z,63.82
2023-04-05T22:04:31.733Z,63.44
2023-04-05T22:07:01.394Z,63.59
2023-04-05T22:09:32.334Z,64.01
2023-04-05T22:12:02.564Z,63.52
2023-04-05T22:14:33.992Z,63.61
2023-04-05T22:17:04.388Z,63.71
2023-04-05T22:19:35.085Z,63.77
2023-04-05T22:22:04.864Z,63.86
2023-04-05T22:24:35.844Z,63.76
2023-04-05T22:27:06.478Z,64.19
2023-04-05T22:29:39.546Z,63.99
2023-04-05T22:32:09.821Z,63.68
2023-04-05T22:34:39.790Z,63.76
2023-04-05T22:37:09.369Z,63.58
2023-04-05T22:39:39.645Z,64.01
2023-04-05T22:42:09.106Z,63.87
2023-04-05T22:44:40.457Z,64.04
2023-04-05T22:47:10.749Z,64.08
2023-04-05T22:49:41.660Z,63.62
2023-04-05T22:52:11.577Z,63.56
2023-04-05T22:54:42.217Z,63.80
2023-04-05T22:57:11.765Z,63.75
2023-04-05T22:59:42.329Z,63.53
2023-04-05T23:02:12.895Z,63.25
2023-04-05T23:04:42.236Z,63.29
2023-04-05T23:07:12.718Z,63.23
2023-04-05T23:09:42.625Z,62.90
2023-04-05T23:12:11.991Z,62.87
2023-04-05T23:14:42.812Z,62.74
2023-04-05T23:17:12.378Z,62.77
2023-04-05T23:19:41.820Z,62.73
2023-04-05T23:22:11.758Z,62.56
2023-04-05T23:24:41.815Z,62.36
2023-04-05T23:27:11.323Z,62.44
2023-04-05T23:29:42.858Z,62.39
2023-04-05T23:32:14.182Z,62.64
2023-04-05T23:34:43.842Z,62.38
2023-04-05T23:37:14.991Z,62.16
2023-04-05T23:39:44.459Z,62.32
2023-04-05T23:42:14.444Z,62.48
2023-04-05T23:44:43.978Z,62.67
2023-04-05T23:47:14.054Z,62.46
2023-04-05T23:49:45.181Z,62.50
2023-04-05T23:52:14.613Z,61.88
2023-04-05T23:54:45.096Z,61.74
2023-04-05T23:57:15.108Z,62.14
2023-04-05T23:59:45.011Z,62.12
